createdAt,value
2019-04-23T00:01:07.987Z,37.30
2019-04-23T00:03:30.576Z,37.70
2019-04-23T00:06:11.817Z,37.50
2019-04-23T00:08:36.249Z,37.30
2019-04-23T00:11:10.641Z,37.70
2019-04-23T00:13:40.348Z,37.80
2019-04-23T00:18:42.216Z,38.30
2019-04-23T00:21:33.422Z,38.10
2019-04-23T00:24:11.455Z,39.20
2019-04-23T00:26:50.389Z,38.00
2019-04-23T00:29:11.716Z,39.20
2019-04-23T00:31:36.179Z,38.80
2019-04-23T00:34:10.804Z,39.10
2019-04-23T00:39:08.329Z,39.30
2019-04-23T00:41:42.638Z,39.40
2019-04-23T00:44:15.181Z,39.70
2019-04-23T00:46:50.691Z,39.80
2019-04-23T00:49:19.774Z,39.60
2019-04-23T00:51:54.819Z,39.70
2019-04-23T00:54:26.276Z,39.90
2019-04-23T00:56:57.038Z,39.60
2019-04-23T00:59:33.215Z,39.60
2019-04-23T01:01:55.785Z,39.40
2019-04-23T01:04:29.061Z,39.60
2019-04-23T01:07:01.024Z,40.00
2019-04-23T01:09:43.726Z,40.00
2019-04-23T01:12:07.515Z,39.80
2019-04-23T01:14:32.523Z,39.70
2019-04-23T01:17:17.038Z,40.00
2019-04-23T01:20:01.629Z,40.00
2019-04-23T01:22:16.657Z,39.50
2019-04-23T01:25:16.422Z,39.70
2019-04-23T01:28:15.921Z,39.90
2019-04-23T01:30:52.871Z,39.70
2019-04-23T01:33:29.724Z,40.00
2019-04-23T01:36:06.431Z,39.90
2019-04-23T01:38:31.084Z,39.90
2019-04-23T01:40:47.435Z,39.90
2019-04-23T01:43:23.585Z,40.00
2019-04-23T01:45:54.556Z,39.90
2019-04-23T01:48:26.176Z,39.80
2019-04-23T01:51:07.857Z,39.80
2019-04-23T01:53:35.118Z,40.00
2019-04-23T01:56:07.082Z,39.90
2019-04-23T02:01:07.181Z,39.70
2019-04-23T02:03:34.716Z,39.70
2019-04-23T02:06:06.710Z,40.20
2019-04-23T02:08:45.907Z,40.00
2019-04-23T02:11:07.930Z,39.70
2019-04-23T02:13:43.427Z,39.70
2019-04-23T02:16:16.833Z,40.30
2019-04-23T02:18:52.772Z,40.30
2019-04-23T02:21:15.437Z,41.00
2019-04-23T02:23:50.807Z,40.70
2019-04-23T02:26:37.190Z,40.90
2019-04-23T02:34:18.583Z,41.30
2019-04-23T02:36:39.928Z,41.20
2019-04-23T02:39:26.509Z,41.60
2019-04-23T02:41:46.883Z,42.60
2019-04-23T02:44:21.115Z,42.30
2019-04-23T02:46:43.541Z,42.00
2019-04-23T02:51:54.345Z,42.30
2019-04-23T02:54:27.178Z,42.40
2019-04-23T03:01:53.982Z,42.60
2019-04-23T03:04:26.821Z,42.40
2019-04-23T03:09:38.660Z,43.30
2019-04-23T03:14:35.656Z,43.40
2019-04-23T03:19:59.373Z,43.70
2019-04-23T03:22:45.148Z,43.80
2019-04-23T03:25:31.117Z,43.80
2019-04-23T03:27:46.445Z,44.00
2019-04-23T03:30:48.741Z,44.10
2019-04-23T03:36:33.697Z,44.70
2019-04-23T03:38:07.988Z,44.50
2019-04-23T03:40:32.414Z,44.70
2019-04-23T03:43:06.646Z,45.10
2019-04-23T03:45:49.190Z,45.00
2019-04-23T03:48:16.807Z,45.40
2019-04-23T03:53:19.859Z,45.70
2019-04-23T03:58:18.728Z,45.70
2019-04-23T04:00:58.887Z,45.80
2019-04-23T04:03:42.339Z,46.00
2019-04-23T04:06:13.799Z,46.10
2019-04-23T04:08:41.598Z,46.00
2019-04-23T04:16:00.354Z,46.10
2019-04-23T04:21:08.729Z,45.90
2019-04-23T04:23:43.187Z,45.70
2019-04-23T04:26:13.433Z,44.90
2019-04-23T04:31:52.299Z,45.30
2019-04-23T04:44:05.225Z,49.40
2019-04-23T04:46:31.862Z,45.60
2019-04-23T04:48:58.859Z,45.80
2019-04-23T04:54:06.434Z,44.60
2019-04-23T04:56:30.282Z,44.00
2019-04-23T04:59:03.682Z,43.10
2019-04-23T05:01:54.167Z,42.10
2019-04-23T05:04:00.058Z,43.00
2019-04-23T05:06:43.899Z,42.40
2019-04-23T05:09:13.078Z,41.80
2019-04-23T05:11:46.152Z,41.70
2019-04-23T05:14:06.741Z,41.30
2019-04-23T05:16:46.809Z,39.80
2019-04-23T05:19:22.141Z,41.20
2019-04-23T05:21:55.623Z,41.50
2019-04-23T05:24:21.776Z,39.20
2019-04-23T05:26:46.489Z,39.20
2019-04-23T05:29:14.532Z,37.70
2019-04-23T05:31:53.345Z,37.20
2019-04-23T05:34:24.035Z,37.70
2019-04-23T05:39:35.749Z,33.70
2019-04-23T05:41:58.613Z,33.30
2019-04-23T05:44:38.345Z,34.00
2019-04-23T05:47:15.020Z,33.40
2019-04-23T05:49:31.757Z,33.90
2019-04-23T05:52:07.515Z,33.60
2019-04-23T05:54:48.197Z,32.60
2019-04-23T05:57:06.681Z,31.20
2019-04-23T05:59:41.880Z,30.70
2019-04-23T06:02:11.353Z,31.30
2019-04-23T06:04:44.661Z,33.70
2019-04-23T06:07:33.322Z,29.00
2019-04-23T06:10:03.240Z,29.30
2019-04-23T06:12:31.943Z,27.80
2019-04-23T06:15:05.642Z,29.50
2019-04-23T06:17:40.548Z,28.80
2019-04-23T06:25:30.789Z,26.70
2019-04-23T06:27:45.966Z,26.80
2019-04-23T06:30:40.793Z,27.80
2019-04-23T06:32:52.479Z,28.50
2019-04-23T06:38:16.267Z,26.50
2019-04-23T06:40:27.432Z,27.50
2019-04-23T06:43:13.177Z,27.80
2019-04-23T06:45:59.671Z,27.30
2019-04-23T06:50:51.090Z,28.80
2019-04-23T06:53:16.197Z,27.00
2019-04-23T06:56:21.014Z,27.10
2019-04-23T06:59:22.240Z,24.70
2019-04-23T07:01:54.068Z,25.50
2019-04-23T07:09:35.245Z,27.10
2019-04-23T07:11:49.825Z,28.30
2019-04-23T07:14:32.233Z,27.90
2019-04-23T07:16:58.584Z,27.10
2019-04-23T07:19:35.481Z,26.60
2019-04-23T07:22:08.186Z,25.90
2019-04-23T07:24:28.595Z,26.60
2019-04-23T07:27:06.600Z,27.90
2019-04-23T07:29:41.713Z,27.50
2019-04-23T07:32:23.024Z,26.80
2019-04-23T07:34:49.481Z,26.80
2019-04-23T07:37:12.601Z,27.50
2019-04-23T07:42:51.189Z,29.40
2019-04-23T07:45:35.054Z,28.60
2019-04-23T07:48:13.250Z,27.90
2019-04-23T07:50:48.042Z,27.10
2019-04-23T07:55:56.824Z,29.00
2019-04-23T07:58:25.752Z,29.30
2019-04-23T08:05:59.137Z,26.30
2019-04-23T08:08:33.254Z,28.10
2019-04-23T08:11:30.637Z,27.90
2019-04-23T08:13:47.765Z,28.30
2019-04-23T08:16:25.973Z,28.80
2019-04-23T08:18:49.536Z,28.60
2019-04-23T08:27:04.232Z,27.40
2019-04-23T08:29:44.287Z,27.20
2019-04-23T08:39:43.550Z,27.10
2019-04-23T08:47:31.875Z,27.00
2019-04-23T08:50:04.265Z,26.10
2019-04-23T08:52:36.982Z,25.10
2019-04-23T08:55:08.695Z,28.20
2019-04-23T08:57:36.628Z,28.80
2019-04-23T09:00:17.938Z,28.10
2019-04-23T09:02:42.253Z,27.90
2019-04-23T09:05:21.221Z,27.90
2019-04-23T09:07:56.901Z,27.80
2019-04-23T09:10:19.618Z,27.50
2019-04-23T09:13:00.782Z,26.70
2019-04-23T09:15:33.402Z,27.50
2019-04-23T09:17:57.781Z,26.70
2019-04-23T09:20:26.403Z,27.20
2019-04-23T09:22:51.821Z,27.50
2019-04-23T09:25:37.318Z,27.90
2019-04-23T09:27:59.930Z,27.40
2019-04-23T09:30:32.563Z,27.10
2019-04-23T09:36:37.768Z,27.60
2019-04-23T09:39:34.600Z,28.80
2019-04-23T09:42:09.145Z,28.90
2019-04-23T09:50:36.540Z,28.90
2019-04-23T09:53:25.137Z,29.60
2019-04-23T09:55:38.783Z,27.90
2019-04-23T09:58:08.231Z,29.00
2019-04-23T10:00:40.747Z,30.20
2019-04-23T10:03:04.460Z,30.50
2019-04-23T10:40:32.191Z,28.30
2019-04-23T10:43:01.248Z,28.30
2019-04-23T10:45:58.184Z,29.40
2019-04-23T10:51:59.952Z,30.00
2019-04-23T11:07:28.703Z,28.70
2019-04-23T11:17:58.314Z,29.00
2019-04-23T11:23:15.176Z,30.70
2019-04-23T11:25:42.792Z,28.40
2019-04-23T11:36:01.386Z,27.00
2019-04-23T11:38:48.853Z,27.10
2019-04-23T11:40:43.615Z,26.80
2019-04-23T11:44:52.208Z,26.80
2019-04-23T11:53:35.546Z,27.10
2019-04-23T11:56:03.951Z,27.00
2019-04-23T11:58:35.753Z,28.10
2019-04-23T12:01:41.950Z,28.60
2019-04-23T12:10:23.529Z,28.40
2019-04-23T12:12:42.895Z,28.00
2019-04-23T12:15:29.494Z,28.10
2019-04-23T12:17:51.208Z,28.20
2019-04-23T12:20:26.800Z,28.30
2019-04-23T12:23:04.302Z,29.10
2019-04-23T12:25:29.123Z,29.30
2019-04-23T12:27:41.960Z,29.00
2019-04-23T12:30:33.630Z,29.40
2019-04-23T12:33:22.132Z,29.20
2019-04-23T12:35:27.795Z,29.00
2019-04-23T12:43:11.670Z,29.70
2019-04-23T12:45:42.197Z,28.60
2019-04-23T12:53:34.690Z,28.30
2019-04-23T12:55:57.850Z,28.30
2019-04-23T12:58:26.918Z,28.40
2019-04-23T13:00:51.412Z,28.10
2019-04-23T13:03:29.831Z,28.30
2019-04-23T13:05:53.981Z,29.00
2019-04-23T13:08:41.533Z,29.50
2019-04-23T13:11:21.574Z,29.20
2019-04-23T13:13:37.451Z,28.90
2019-04-23T13:16:12.389Z,28.90
2019-04-23T13:18:38.183Z,29.40
2019-04-23T13:21:29.904Z,29.00
2019-04-23T13:23:40.943Z,29.30
2019-04-23T13:26:11.836Z,29.20
2019-04-23T13:28:51.236Z,28.90
2019-04-23T13:31:20.453Z,29.20
2019-04-23T13:33:58.054Z,28.70
2019-04-23T13:36:33.021Z,28.20
2019-04-23T13:38:56.975Z,28.10
2019-04-23T13:41:47.968Z,28.40
2019-04-23T13:43:53.117Z,28.80
2019-04-23T13:46:45.532Z,29.00
2019-04-23T13:49:11.437Z,29.40
2019-04-23T13:51:40.208Z,29.70
2019-04-23T13:57:14.411Z,29.70
2019-04-23T13:59:26.365Z,29.70
2019-04-23T14:02:07.599Z,29.40
2019-04-23T14:06:57.537Z,29.80
2019-04-23T14:12:10.618Z,30.80
2019-04-23T14:14:47.902Z,31.40
2019-04-23T14:19:50.671Z,39.70
2019-04-23T14:22:33.730Z,43.80
2019-04-23T14:24:54.483Z,42.20
2019-04-23T14:27:20.094Z,40.10
2019-04-23T14:29:56.496Z,37.50
2019-04-23T14:32:24.683Z,36.80
2019-04-23T14:35:04.329Z,35.90
2019-04-23T14:37:23.523Z,34.40
2019-04-23T14:40:10.989Z,33.60
2019-04-23T14:42:44.917Z,34.20
2019-04-23T14:45:13.427Z,33.10
2019-04-23T14:50:24.333Z,32.50
2019-04-23T14:52:38.657Z,32.80
2019-04-23T15:00:17.600Z,33.80
2019-04-23T15:02:51.923Z,33.80
2019-04-23T15:05:17.530Z,33.20
2019-04-23T15:07:42.147Z,32.80
2019-04-23T15:10:29.683Z,33.80
2019-04-23T15:12:52.069Z,33.20
2019-04-23T15:15:19.519Z,32.90
2019-04-23T15:20:39.452Z,32.50
2019-04-23T15:25:40.298Z,32.60
2019-04-23T15:30:27.725Z,33.00
2019-04-23T15:33:09.786Z,33.00
2019-04-23T15:40:49.931Z,31.50
2019-04-23T15:43:14.433Z,31.40
2019-04-23T15:45:44.521Z,29.90
2019-04-23T15:48:17.192Z,29.80
2019-04-23T15:50:51.727Z,29.40
2019-04-23T15:53:11.423Z,29.30
2019-04-23T15:55:59.461Z,29.40
2019-04-23T15:58:33.510Z,29.40
2019-04-23T16:03:24.576Z,29.40
2019-04-23T16:05:55.194Z,29.40
2019-04-23T16:11:39.680Z,29.60
2019-04-23T16:14:16.775Z,29.30
2019-04-23T16:16:41.240Z,29.50
2019-04-23T16:19:25.891Z,30.00
2019-04-23T16:22:01.875Z,30.00
2019-04-23T16:24:22.142Z,30.30
2019-04-23T16:27:01.701Z,30.50
2019-04-23T16:29:46.895Z,30.50
2019-04-23T16:32:08.556Z,30.90
2019-04-23T16:34:53.631Z,33.00
2019-04-23T16:37:26.464Z,33.50
2019-04-23T16:40:02.948Z,34.10
2019-04-23T16:42:29.262Z,34.90
2019-04-23T16:47:28.457Z,35.60
2019-04-23T16:52:32.736Z,36.10
2019-04-23T16:55:24.224Z,36.10
2019-04-23T16:57:46.064Z,36.00
2019-04-23T17:00:22.914Z,34.90
2019-04-23T17:02:54.683Z,34.70
2019-04-23T17:05:24.823Z,34.50
2019-04-23T17:08:08.973Z,34.00
2019-04-23T17:10:38.828Z,33.60
2019-04-23T17:12:54.833Z,34.20
2019-04-23T17:15:26.020Z,34.20
2019-04-23T17:17:55.728Z,34.40
2019-04-23T17:20:40.954Z,35.00
2019-04-23T17:23:09.553Z,34.70
2019-04-23T17:25:37.631Z,34.50
2019-04-23T17:28:11.181Z,35.10
2019-04-23T17:30:41.309Z,35.50
2019-04-23T17:39:09.673Z,36.30
2019-04-23T17:42:05.364Z,36.20
2019-04-23T17:47:08.731Z,36.20
2019-04-23T17:50:00.126Z,36.50
2019-04-23T17:52:14.393Z,36.70
2019-04-23T17:54:48.440Z,37.20
2019-04-23T17:57:15.261Z,37.60
2019-04-23T18:00:11.545Z,37.30
2019-04-23T18:02:51.702Z,37.40
2019-04-23T18:12:43.839Z,37.70
2019-04-23T18:15:05.059Z,38.50
2019-04-23T18:20:17.864Z,39.40
2019-04-23T18:22:54.088Z,39.30
2019-04-23T18:25:23.928Z,39.40
2019-04-23T18:27:54.620Z,39.60
2019-04-23T18:31:00.000Z,38.90
2019-04-23T18:36:09.772Z,39.60
2019-04-23T18:38:41.587Z,39.70
2019-04-23T18:43:44.910Z,38.90
2019-04-23T18:51:10.174Z,38.80
2019-04-23T18:56:51.477Z,39.00
2019-04-23T18:59:15.841Z,39.00
2019-04-23T19:01:30.875Z,39.40
2019-04-23T19:04:33.265Z,39.00
2019-04-23T19:06:54.882Z,39.00
2019-04-23T19:13:07.723Z,40.30
2019-04-23T19:20:38.049Z,45.40
2019-04-23T19:23:19.069Z,49.30
2019-04-23T19:25:36.590Z,49.50
2019-04-23T19:28:10.483Z,52.30
2019-04-23T19:30:55.024Z,56.20
2019-04-23T19:33:35.201Z,58.40
2019-04-23T19:38:31.082Z,66.00
2019-04-23T19:41:02.181Z,65.20
2019-04-23T19:43:34.092Z,68.60
2019-04-23T19:48:42.773Z,74.70
2019-04-23T19:56:16.909Z,79.10
2019-04-23T19:58:44.913Z,81.70
2019-04-23T20:03:49.682Z,91.60
2019-04-23T20:09:09.697Z,90.90
2019-04-23T20:11:34.979Z,92.40
2019-04-23T20:19:25.338Z,95.60
2019-04-23T20:22:09.077Z,95.90
2019-04-23T20:24:53.576Z,95.60
2019-04-23T20:26:59.467Z,94.20
2019-04-23T20:30:02.834Z,96.70
2019-04-23T20:38:09.325Z,98.80
2019-04-23T20:40:16.681Z,95.50
2019-04-23T20:42:49.745Z,97.30
2019-04-23T20:45:17.000Z,96.20
2019-04-23T20:50:20.621Z,97.30
2019-04-23T20:52:49.693Z,98.20
2019-04-23T20:55:37.012Z,99.90
2019-04-23T20:58:09.466Z,98.20
2019-04-23T21:00:59.294Z,99.90
2019-04-23T21:03:43.694Z,99.90
2019-04-23T21:06:07.205Z,99.90
2019-04-23T21:08:52.334Z,99.90
2019-04-23T21:10:58.370Z,99.90
2019-04-23T21:13:55.073Z,99.90
2019-04-23T21:16:08.983Z,99.90
2019-04-23T21:21:08.214Z,99.90
2019-04-23T21:23:50.406Z,99.90
2019-04-23T21:26:07.973Z,99.90
2019-04-23T21:28:47.390Z,99.90
2019-04-23T21:31:25.535Z,99.90
2019-04-23T21:36:45.579Z,99.90
2019-04-23T21:40:27.370Z,99.90
2019-04-23T21:42:57.334Z,99.90
2019-04-23T21:45:28.467Z,99.90
2019-04-23T21:48:04.450Z,99.90
2019-04-23T21:52:54.432Z,99.90
2019-04-23T21:55:35.208Z,99.90
2019-04-23T22:00:36.495Z,99.90
2019-04-23T22:03:09.872Z,99.90
2019-04-23T22:05:46.042Z,99.90
2019-04-23T22:08:06.797Z,99.90
2019-04-23T22:10:45.809Z,99.90
2019-04-23T22:13:20.316Z,99.90
2019-04-23T22:16:41.030Z,99.90
2019-04-23T22:18:12.878Z,99.90
2019-04-23T22:20:48.919Z,99.90
2019-04-23T22:23:18.168Z,99.90
2019-04-23T22:25:56.966Z,99.90
2019-04-23T22:28:31.446Z,99.90
2019-04-23T22:31:03.981Z,99.90
2019-04-23T22:33:25.185Z,99.90
2019-04-23T22:36:06.214Z,99.90
2019-04-23T22:38:26.039Z,99.90
2019-04-23T22:43:29.978Z,99.90
2019-04-23T22:49:01.311Z,99.90
2019-04-23T22:51:22.831Z,99.90
2019-04-23T22:53:52.239Z,99.90
2019-04-23T22:56:20.865Z,99.90
2019-04-23T22:59:01.520Z,99.90
2019-04-23T23:01:26.142Z,99.90
2019-04-23T23:04:09.321Z,99.90
2019-04-23T23:09:22.538Z,99.90
2019-04-23T23:11:42.827Z,99.90
2019-04-23T23:14:16.742Z,99.90
2019-04-23T23:16:44.795Z,99.90
2019-04-23T23:21:59.669Z,99.90
2019-04-23T23:24:27.009Z,99.90
2019-04-23T23:26:54.157Z,99.90
2019-04-23T23:29:46.724Z,99.90
2019-04-23T23:34:27.857Z,99.90
2019-04-23T23:37:02.153Z,99.90
2019-04-23T23:39:28.316Z,99.90
2019-04-23T23:42:02.799Z,99.90
2019-04-23T23:47:07.282Z,99.90
2019-04-23T23:49:43.832Z,99.90
2019-04-23T23:52:03.198Z,99.90
2019-04-23T23:54:35.866Z,99.90
2019-04-23T23:57:12.513Z,99.90
